Dades meteomassalio
Diari Summary for Marc 27, 2017 Units:  Metric    English   Both
« Previous Day
Next Day »
Diari Semanal Mensual Anual Personalitzat
  Maxima: Minima: Mijana:
Temperatura: 14.3 °C 8.4 °C 11.4 °C
Rosada: 9.1 °C 6.7 °C 8.3 °C
Humitat: 89 % 70 % 82 %
Velocitat del vent: 4.8 km/h 0.0 km/h 0.2 km/h
Racha vent: 4.8 km/h - -
Vent:- - SE
Pressio: 1024.3 hPa 1019.9 hPa -
Pluja: 4.6 mm    
Historical Graphs
 
 
Tabular Data for Marc 27, 2017
Time Temperature Dew Point Pressure Wind Wind Speed Wind Gust Humidity Rainfall Rate (Hourly) solar Conditions
16:38 13.7 °C 8.6 °C 1019.9 hPa SE 4.8 km/h 4.8 km/h 71 % 0.3 mm 619.0 W/m2 OVC
16:43 13.8 °C 8.6 °C 1019.9 hPa Calm     71 % 0.3 mm 605.0 W/m2 CLR
16:48 14.0 °C 9.1 °C 1019.9 hPa Calm     72 % 0.3 mm 594.0 W/m2 CLR
16:53 14.3 °C 8.9 °C 1019.9 hPa SSE 3.7 km/h   70 % 0.0 mm 584.0 W/m2 CLR
20:21 12.8 °C 9.1 °C 1021.9 hPa Calm     78 % 0.0 mm 0.0 W/m2 OVC
20:26 12.7 °C 9.0 °C 1021.9 hPa Calm     78 % 0.0 mm 0.0 W/m2 OVC
20:31 12.7 °C 8.7 °C 1022.2 hPa Calm     77 % 0.0 mm 0.0 W/m2 CLR
20:36 12.7 °C 8.7 °C 1022.2 hPa Calm     77 % 0.0 mm 0.0 W/m2 CLR
20:41 12.6 °C 8.7 °C 1022.6 hPa Calm     77 % 0.0 mm 0.0 W/m2 CLR
20:46 12.6 °C 8.6 °C 1022.6 hPa Calm     77 % 0.0 mm 0.0 W/m2 CLR
20:51 12.6 °C 8.8 °C 1022.6 hPa Calm     78 % 0.0 mm 0.0 W/m2 CLR
20:56 12.5 °C 8.8 °C 1022.6 hPa Calm     78 % 0.0 mm 0.0 W/m2 CLR
21:01 12.4 °C 8.7 °C 1022.6 hPa East 3.7 km/h   78 % 0.0 mm 0.0 W/m2 CLR
21:06 12.4 °C 8.8 °C 1022.9 hPa Calm     79 % 0.0 mm 0.0 W/m2 CLR
21:11 12.3 °C 8.8 °C 1022.6 hPa Calm     79 % 0.0 mm 0.0 W/m2 CLR
21:16 12.2 °C 8.7 °C 1022.9 hPa Calm     79 % 0.0 mm 0.0 W/m2 CLR
21:21 12.2 °C 8.8 °C 1022.9 hPa Calm     80 % 0.0 mm 0.0 W/m2 CLR
21:26 12.1 °C 8.8 °C 1022.9 hPa Calm     80 % 0.0 mm 0.0 W/m2 CLR
21:29 12.1 °C 8.7 °C 1022.9 hPa Calm     80 % 0.0 mm 0.0 W/m2 CLR
21:31 12.0 °C 8.7 °C 1022.9 hPa Calm     80 % 0.0 mm 0.0 W/m2 CLR
21:33 12.0 °C 8.7 °C 1022.9 hPa Calm     80 % 0.0 mm 0.0 W/m2 CLR
21:34 11.9 °C 8.6 °C 1022.9 hPa Calm     80 % 0.0 mm 0.0 W/m2 CLR
21:35 11.9 °C 8.8 °C 1022.9 hPa Calm     81 % 0.0 mm 0.0 W/m2 CLR
21:36 11.9 °C 8.6 °C 1022.9 hPa Calm     80 % 0.0 mm 0.0 W/m2 CLR
21:39 11.9 °C 8.6 °C 1023.2 hPa Calm     80 % 0.0 mm 0.0 W/m2 CLR
21:44 11.8 °C 8.5 °C 1023.2 hPa Calm     80 % 0.0 mm 0.0 W/m2 CLR
21:49 11.7 °C 8.6 °C 1023.2 hPa Calm     81 % 0.0 mm 0.0 W/m2 CLR
21:51 11.7 °C 8.5 °C 1023.2 hPa Calm     81 % 0.0 mm 0.0 W/m2 CLR
21:53 11.6 °C 8.4 °C 1023.2 hPa Calm     81 % 0.0 mm 0.0 W/m2 CLR
21:56 11.6 °C 8.4 °C 1023.2 hPa Calm     81 % 0.0 mm 0.0 W/m2 CLR
21:58 11.5 °C 8.6 °C 1023.2 hPa Calm     82 % 0.0 mm 0.0 W/m2 CLR
22:03 11.3 °C 8.4 °C 1023.6 hPa Calm     82 % 0.0 mm 0.0 W/m2 CLR
22:08 11.2 °C 8.4 °C 1023.6 hPa Calm     83 % 0.0 mm 0.0 W/m2 CLR
22:13 11.1 °C 8.3 °C 1023.6 hPa Calm     83 % 0.0 mm 0.0 W/m2 CLR
22:18 11.0 °C 8.2 °C 1023.9 hPa Calm     83 % 0.0 mm 0.0 W/m2 CLR
22:23 10.9 °C 8.3 °C 1023.9 hPa Calm     84 % 0.0 mm 0.0 W/m2 CLR
22:28 10.9 °C 8.3 °C 1023.9 hPa Calm     84 % 0.0 mm 0.0 W/m2 CLR
22:33 11.0 °C 8.4 °C 1023.9 hPa Calm     84 % 0.0 mm 0.0 W/m2 CLR
22:38 10.9 °C 8.3 °C 1023.9 hPa Calm     84 % 0.0 mm 0.0 W/m2 CLR
22:43 10.9 °C 8.3 °C 1023.9 hPa Calm     84 % 0.0 mm 0.0 W/m2 CLR
22:48 10.8 °C 8.2 °C 1023.9 hPa Calm     84 % 0.0 mm 0.0 W/m2 CLR
22:53 10.7 °C 8.2 °C 1024.3 hPa Calm     85 % 0.0 mm 0.0 W/m2 CLR
22:54 10.6 °C 8.2 °C 1024.3 hPa Calm     85 % 0.0 mm 0.0 W/m2 CLR
22:59 10.4 °C 8.1 °C 1024.3 hPa Calm     85 % 0.0 mm 0.0 W/m2 CLR
23:04 10.3 °C 8.1 °C 1024.3 hPa Calm     86 % 0.0 mm 0.0 W/m2 CLR
23:09 10.1 °C 7.8 °C 1024.3 hPa Calm     86 % 0.0 mm 0.0 W/m2 CLR
23:14 9.9 °C 7.8 °C 1024.3 hPa Calm     87 % 0.0 mm 0.0 W/m2 CLR
23:19 9.7 °C 7.7 °C 1024.3 hPa Calm     87 % 0.0 mm 0.0 W/m2 CLR
23:24 9.6 °C 7.7 °C 1024.3 hPa Calm     88 % 0.0 mm 0.0 W/m2 CLR
23:29 9.6 °C 7.7 °C 1024.3 hPa Calm     88 % 0.0 mm 0.0 W/m2 CLR
23:34 9.6 °C 7.7 °C 1024.3 hPa Calm     88 % 0.0 mm 0.0 W/m2 CLR
23:39 9.4 °C 7.5 °C 1024.3 hPa Calm     88 % 0.0 mm 0.0 W/m2 CLR
23:44 9.1 °C 7.2 °C 1024.3 hPa Calm     88 % 0.0 mm 0.0 W/m2 CLR
23:49 8.8 °C 7.1 °C 1024.3 hPa Calm     89 % 0.0 mm 0.0 W/m2 CLR
23:54 8.6 °C 6.9 °C 1024.3 hPa Calm     89 % 0.0 mm 0.0 W/m2 CLR
23:59 8.4 °C 6.7 °C 1024.3 hPa Calm     89 % 0.0 mm 0.0 W/m2 CLR
Lo Temps de Massalio
Compliments of Weather Underground - 512 kb